createdAt,value
2022-08-01T00:01:17.384Z,3.17
2022-08-01T00:03:45.291Z,3.57
2022-08-01T00:06:13.160Z,3.87
2022-08-01T00:08:40.909Z,3.90
2022-08-01T00:11:10.087Z,3.03
2022-08-01T00:13:38.008Z,2.73
2022-08-01T00:16:07.479Z,2.20
2022-08-01T00:18:36.394Z,3.00
2022-08-01T00:21:04.641Z,2.53
2022-08-01T00:23:32.537Z,4.43
2022-08-01T00:26:00.476Z,4.50
2022-08-01T00:28:28.387Z,2.67
2022-08-01T00:30:56.326Z,2.80
2022-08-01T00:33:25.568Z,3.47
2022-08-01T00:35:53.429Z,2.40
2022-08-01T00:38:21.358Z,2.83
2022-08-01T00:40:49.260Z,4.07
2022-08-01T00:43:17.411Z,1.93
2022-08-01T00:45:45.339Z,2.10
2022-08-01T00:48:13.191Z,3.00
2022-08-01T00:50:42.755Z,3.53
2022-08-01T00:53:11.022Z,3.70
2022-08-01T00:55:47.392Z,2.50
2022-08-01T00:58:15.164Z,2.37
2022-08-01T01:00:53.478Z,3.47
2022-08-01T01:03:26.389Z,4.17
2022-08-01T01:06:15.047Z,2.70
2022-08-01T01:08:48.484Z,2.73
2022-08-01T01:11:22.020Z,2.63
2022-08-01T01:13:57.453Z,4.37
2022-08-01T01:16:26.769Z,5.63
2022-08-01T01:18:57.612Z,4.97
2022-08-01T01:21:39.876Z,2.43
2022-08-01T01:24:19.080Z,3.37
2022-08-01T01:26:54.365Z,5.43
2022-08-01T01:29:30.152Z,2.73
2022-08-01T01:32:22.096Z,4.73
2022-08-01T01:35:00.674Z,3.03
2022-08-01T01:37:31.875Z,4.27
2022-08-01T01:40:00.355Z,2.90
2022-08-01T01:42:29.632Z,3.33
2022-08-01T01:45:00.368Z,5.37
2022-08-01T01:47:30.427Z,2.93
2022-08-01T01:50:01.257Z,3.70
2022-08-01T01:52:30.756Z,3.70
2022-08-01T01:55:00.578Z,3.97
2022-08-01T01:57:30.801Z,3.77
2022-08-01T02:00:01.459Z,2.90
2022-08-01T02:02:29.934Z,2.30
2022-08-01T02:04:59.470Z,2.90
2022-08-01T02:07:28.298Z,5.37
2022-08-01T02:09:57.681Z,4.10
2022-08-01T02:12:26.713Z,4.27
2022-08-01T02:14:55.797Z,4.37
2022-08-01T02:17:26.560Z,5.20
2022-08-01T02:19:55.240Z,3.87
2022-08-01T02:22:29.272Z,3.47
2022-08-01T02:25:04.505Z,4.87
2022-08-01T02:27:36.187Z,2.73
2022-08-01T02:30:07.257Z,3.43
2022-08-01T02:32:40.727Z,2.87
2022-08-01T02:35:11.905Z,3.63
2022-08-01T02:37:44.360Z,3.07
2022-08-01T02:40:16.026Z,3.97
2022-08-01T02:42:47.330Z,5.50
2022-08-01T02:45:15.615Z,3.50
2022-08-01T02:47:47.537Z,3.97
2022-08-01T02:50:17.589Z,4.17
2022-08-01T02:52:47.919Z,4.53
2022-08-01T02:55:16.835Z,2.73
2022-08-01T02:57:52.539Z,3.57
2022-08-01T03:00:26.933Z,3.00
2022-08-01T03:02:57.914Z,2.50
2022-08-01T03:05:27.022Z,4.57
2022-08-01T03:08:02.604Z,2.97
2022-08-01T03:10:33.375Z,3.80
2022-08-01T03:13:03.233Z,3.00
2022-08-01T03:15:32.981Z,3.60
2022-08-01T03:18:04.376Z,3.43
2022-08-01T03:20:33.818Z,2.53
2022-08-01T03:23:05.312Z,2.93
2022-08-01T03:25:34.921Z,2.90
2022-08-01T03:28:05.856Z,3.27
2022-08-01T03:30:36.691Z,4.73
2022-08-01T03:33:06.001Z,3.80
2022-08-01T03:35:38.977Z,2.67
2022-08-01T03:38:16.921Z,3.33
2022-08-01T03:40:51.523Z,3.70
2022-08-01T03:43:24.453Z,3.37
2022-08-01T03:45:55.164Z,2.27
2022-08-01T03:48:31.879Z,2.93
2022-08-01T03:51:01.318Z,5.93
2022-08-01T03:53:33.934Z,3.07
2022-08-01T03:56:04.152Z,3.07
2022-08-01T03:58:32.956Z,2.63
2022-08-01T04:01:01.474Z,4.43
2022-08-01T04:03:31.258Z,9.47
2022-08-01T04:05:59.134Z,4.73
2022-08-01T04:08:36.846Z,3.13
2022-08-01T04:11:04.936Z,3.10
2022-08-01T04:13:36.727Z,5.10
2022-08-01T04:16:06.128Z,4.53
2022-08-01T04:18:35.322Z,4.33
2022-08-01T04:21:03.222Z,3.67
2022-08-01T04:23:33.469Z,4.37
2022-08-01T04:26:04.962Z,4.83
2022-08-01T04:28:35.917Z,4.80
2022-08-01T04:31:06.278Z,6.03
2022-08-01T04:33:37.431Z,4.20
2022-08-01T04:36:08.204Z,6.07
2022-08-01T04:38:38.468Z,7.73
2022-08-01T04:41:09.907Z,6.27
2022-08-01T04:43:38.593Z,7.23
2022-08-01T04:46:08.781Z,7.33
2022-08-01T04:48:40.433Z,8.17
2022-08-01T04:51:16.048Z,5.60
2022-08-01T04:53:44.576Z,8.13
2022-08-01T04:56:13.945Z,9.70
2022-08-01T04:58:42.107Z,9.20
2022-08-01T05:01:10.450Z,6.57
2022-08-01T05:03:39.827Z,7.13
2022-08-01T05:06:09.092Z,8.17
2022-08-01T05:08:37.846Z,8.57
2022-08-01T05:11:06.129Z,7.43
2022-08-01T05:13:33.954Z,7.40
2022-08-01T05:16:04.436Z,6.30
2022-08-01T05:18:32.316Z,8.00
2022-08-01T05:21:02.793Z,9.23
2022-08-01T05:23:34.169Z,7.27
2022-08-01T05:26:09.991Z,10.10
2022-08-01T05:28:38.051Z,8.80
2022-08-01T05:31:05.998Z,6.40
2022-08-01T05:33:34.082Z,8.07
2022-08-01T05:36:03.277Z,8.67
2022-08-01T05:38:31.091Z,6.70
2022-08-01T05:40:58.971Z,8.37
2022-08-01T05:43:28.992Z,8.67
2022-08-01T05:45:57.445Z,7.03
2022-08-01T05:48:25.217Z,9.43
2022-08-01T05:50:58.239Z,7.90
2022-08-01T05:53:27.878Z,11.80
2022-08-01T05:55:55.953Z,8.13
2022-08-01T05:58:24.145Z,6.93
2022-08-01T06:00:52.058Z,9.00
2022-08-01T06:03:20.453Z,9.90
2022-08-01T06:05:48.456Z,9.70
2022-08-01T06:08:16.495Z,9.93
2022-08-01T06:10:45.634Z,12.13
2022-08-01T06:13:13.473Z,8.27
2022-08-01T06:15:41.530Z,9.70
2022-08-01T06:18:09.514Z,9.43
2022-08-01T06:20:37.536Z,9.63
2022-08-01T06:23:22.530Z,6.27
2022-08-01T06:25:56.005Z,6.57
2022-08-01T06:28:23.908Z,6.73
2022-08-01T06:30:51.777Z,8.30
2022-08-01T06:33:19.650Z,7.10
2022-08-01T06:35:47.526Z,6.50
2022-08-01T06:38:16.138Z,8.03
2022-08-01T06:40:44.160Z,8.53
2022-08-01T06:43:13.293Z,8.43
2022-08-01T06:45:41.281Z,7.17
2022-08-01T06:48:09.193Z,6.00
2022-08-01T06:50:37.773Z,5.60
2022-08-01T06:53:06.021Z,6.53
2022-08-01T06:55:34.045Z,7.63
2022-08-01T06:58:01.818Z,6.17
2022-08-01T07:00:31.675Z,8.83
2022-08-01T07:03:01.431Z,7.23
2022-08-01T07:05:31.957Z,6.50
2022-08-01T07:08:00.160Z,8.80
2022-08-01T07:10:27.974Z,5.97
2022-08-01T07:12:56.020Z,5.80
2022-08-01T07:15:27.325Z,5.80
2022-08-01T07:17:57.902Z,5.60
2022-08-01T07:20:25.763Z,5.03
2022-08-01T07:22:54.150Z,6.10
2022-08-01T07:25:24.732Z,5.27
2022-08-01T07:27:52.558Z,6.77
2022-08-01T07:30:20.496Z,5.43
2022-08-01T07:32:48.348Z,5.03
2022-08-01T07:35:17.662Z,5.60
2022-08-01T07:37:48.908Z,4.20
2022-08-01T07:40:18.428Z,4.97
2022-08-01T07:42:46.367Z,5.77
2022-08-01T07:45:15.075Z,5.93
2022-08-01T07:47:43.200Z,6.33
2022-08-01T07:50:11.609Z,6.10
2022-08-01T07:52:41.350Z,5.20
2022-08-01T07:55:10.885Z,3.75
2022-08-01T07:57:38.927Z,5.72
2022-08-01T08:00:09.728Z,4.32
2022-08-01T08:02:37.618Z,3.65
2022-08-01T08:05:07.460Z,3.42
2022-08-01T08:07:35.522Z,3.00
2022-08-01T08:10:05.982Z,3.08
2022-08-01T08:12:34.065Z,2.83
2022-08-01T08:15:02.137Z,2.22
2022-08-01T08:17:35.577Z,2.50
2022-08-01T08:20:06.466Z,2.35
2022-08-01T08:22:37.287Z,3.22
2022-08-01T08:25:08.441Z,2.92
2022-08-01T08:27:37.716Z,2.45
2022-08-01T08:30:08.447Z,2.90
2022-08-01T08:32:36.786Z,2.80
2022-08-01T08:35:05.780Z,4.18
2022-08-01T08:37:38.946Z,3.33
2022-08-01T08:40:13.276Z,2.53
2022-08-01T08:42:42.971Z,2.65
2022-08-01T08:45:12.602Z,2.00
2022-08-01T08:47:41.434Z,2.80
2022-08-01T08:50:10.296Z,2.45
2022-08-01T08:52:41.001Z,1.90
2022-08-01T08:55:10.738Z,1.10
2022-08-01T08:57:42.486Z,2.15
2022-08-01T09:00:12.791Z,1.70
2022-08-01T09:02:43.763Z,2.53
2022-08-01T09:05:17.414Z,2.35
2022-08-01T09:07:47.163Z,1.80
2022-08-01T09:10:15.073Z,2.15
2022-08-01T09:13:04.152Z,1.55
2022-08-01T09:15:44.879Z,1.63
2022-08-01T09:18:30.237Z,2.00
2022-08-01T09:21:10.959Z,1.83
2022-08-01T09:23:53.495Z,2.85
2022-08-01T09:26:29.937Z,2.20
2022-08-01T09:29:01.171Z,2.45
2022-08-01T09:31:37.933Z,0.95
2022-08-01T09:34:06.847Z,1.40
2022-08-01T09:36:49.194Z,3.78
2022-08-01T09:39:17.380Z,1.33
2022-08-01T09:41:45.275Z,1.45
2022-08-01T09:44:14.839Z,1.20
2022-08-01T09:46:55.166Z,1.80
2022-08-01T09:49:51.702Z,0.93
2022-08-01T09:52:21.524Z,1.00
2022-08-01T09:54:56.376Z,1.38
2022-08-01T09:57:24.539Z,1.23
2022-08-01T09:59:58.704Z,2.47
2022-08-01T10:02:33.013Z,1.20
2022-08-01T10:05:08.368Z,0.77
2022-08-01T10:07:42.748Z,1.52
2022-08-01T10:10:14.621Z,1.35
2022-08-01T10:12:45.909Z,1.00
2022-08-01T10:15:18.512Z,1.60
2022-08-01T10:17:57.088Z,1.00
2022-08-01T10:20:30.283Z,1.20
2022-08-01T10:23:06.339Z,1.15
2022-08-01T10:25:42.962Z,2.30
2022-08-01T10:28:23.865Z,2.45
2022-08-01T10:30:54.770Z,1.25
2022-08-01T10:33:50.900Z,2.20
2022-08-01T10:36:13.022Z,1.80
2022-08-01T10:38:42.689Z,1.70
2022-08-01T10:41:15.913Z,1.23
2022-08-01T10:43:45.495Z,2.30
2022-08-01T10:46:15.080Z,1.30
2022-08-01T10:48:49.018Z,1.90
2022-08-01T10:51:22.353Z,1.67
2022-08-01T10:54:11.514Z,0.80
2022-08-01T10:56:45.949Z,1.95
2022-08-01T10:59:50.450Z,2.33
2022-08-01T11:02:12.129Z,1.08
2022-08-01T11:04:52.803Z,1.50
2022-08-01T11:07:26.700Z,1.33
2022-08-01T11:10:14.878Z,0.98
2022-08-01T11:12:45.694Z,1.58
2022-08-01T11:15:30.068Z,1.17
2022-08-01T11:18:02.789Z,0.82
2022-08-01T11:20:41.948Z,2.03
2022-08-01T11:23:25.387Z,1.10
2022-08-01T11:26:17.596Z,0.80
2022-08-01T11:29:10.960Z,1.05
2022-08-01T11:31:36.998Z,0.80
2022-08-01T11:34:08.025Z,3.72
2022-08-01T11:36:58.382Z,1.08
2022-08-01T11:39:24.443Z,0.73
2022-08-01T11:41:53.543Z,1.23
2022-08-01T11:44:26.416Z,0.80
2022-08-01T11:47:01.066Z,0.85
2022-08-01T11:49:51.397Z,1.38
2022-08-01T11:52:20.986Z,0.88
2022-08-01T11:54:51.359Z,0.68
2022-08-01T11:57:23.076Z,0.80
2022-08-01T12:00:03.449Z,0.80
2022-08-01T12:02:35.071Z,0.50
2022-08-01T12:05:08.471Z,1.15
2022-08-01T12:07:41.164Z,0.63
2022-08-01T12:10:11.857Z,0.85
2022-08-01T12:12:45.050Z,0.45
2022-08-01T12:15:13.519Z,0.43
2022-08-01T12:17:46.927Z,0.65
2022-08-01T12:20:30.936Z,1.50
2022-08-01T12:23:04.010Z,0.50
2022-08-01T12:25:32.520Z,0.77
2022-08-01T12:28:02.900Z,0.52
2022-08-01T12:30:32.690Z,0.38
2022-08-01T12:33:00.714Z,1.02
2022-08-01T12:35:32.019Z,0.80
2022-08-01T12:38:02.107Z,1.38
2022-08-01T12:40:31.864Z,0.80
2022-08-01T12:43:03.071Z,0.77
2022-08-01T12:45:34.832Z,1.38
2022-08-01T12:48:03.792Z,1.48
2022-08-01T12:50:33.997Z,2.60
2022-08-01T12:53:04.070Z,0.93
2022-08-01T12:55:35.060Z,1.13
2022-08-01T12:58:10.364Z,0.70
2022-08-01T13:00:45.151Z,3.38
2022-08-01T13:03:17.488Z,1.98
2022-08-01T13:05:50.162Z,1.33
2022-08-01T13:08:19.899Z,0.98
2022-08-01T13:10:48.857Z,0.80
2022-08-01T13:13:28.632Z,1.30
2022-08-01T13:16:06.872Z,0.57
2022-08-01T13:18:37.793Z,0.57
2022-08-01T13:21:16.201Z,0.47
2022-08-01T13:24:04.015Z,0.65
2022-08-01T13:26:46.812Z,0.85
2022-08-01T13:29:16.699Z,0.77
2022-08-01T13:31:45.265Z,0.73
2022-08-01T13:34:13.695Z,1.17
2022-08-01T13:36:49.008Z,0.85
2022-08-01T13:39:40.233Z,3.50
2022-08-01T13:42:08.440Z,0.95
2022-08-01T13:44:36.513Z,1.27
2022-08-01T13:47:15.010Z,0.73
2022-08-01T13:49:44.034Z,0.85
2022-08-01T13:52:13.280Z,0.90
2022-08-01T13:54:41.192Z,1.38
2022-08-01T13:57:09.041Z,0.68
2022-08-01T13:59:37.040Z,1.45
2022-08-01T14:02:05.146Z,2.17
2022-08-01T14:04:33.350Z,0.77
2022-08-01T14:07:05.528Z,0.85
2022-08-01T14:10:04.735Z,0.82
2022-08-01T14:12:26.729Z,0.90
2022-08-01T14:14:54.670Z,1.05
2022-08-01T14:17:22.576Z,0.57
2022-08-01T14:19:50.818Z,0.95
2022-08-01T14:22:18.936Z,0.95
2022-08-01T14:24:48.607Z,1.02
2022-08-01T14:27:16.495Z,2.38
2022-08-01T14:30:00.287Z,1.00
2022-08-01T14:32:34.073Z,1.30
2022-08-01T14:35:02.217Z,0.88
2022-08-01T14:37:34.722Z,1.05
2022-08-01T14:40:10.235Z,0.98
2022-08-01T14:42:39.167Z,1.42
2022-08-01T14:45:09.702Z,2.03
2022-08-01T14:47:37.982Z,1.88
2022-08-01T14:50:08.174Z,3.10
2022-08-01T14:52:36.745Z,1.50
2022-08-01T14:55:07.013Z,2.33
2022-08-01T14:57:34.958Z,1.38
2022-08-01T15:00:03.338Z,0.80
2022-08-01T15:02:31.466Z,2.22
2022-08-01T15:04:59.344Z,0.90
2022-08-01T15:07:27.227Z,0.90
2022-08-01T15:09:55.090Z,1.23
2022-08-01T15:12:24.301Z,0.98
2022-08-01T15:14:52.295Z,1.35
2022-08-01T15:17:21.592Z,0.95
2022-08-01T15:19:53.420Z,1.15
2022-08-01T15:22:22.159Z,2.00
2022-08-01T15:24:56.847Z,1.52
2022-08-01T15:27:26.761Z,1.00
2022-08-01T15:29:55.363Z,0.85
2022-08-01T15:32:23.449Z,1.73
2022-08-01T15:34:51.399Z,1.55
2022-08-01T15:37:19.417Z,1.17
2022-08-01T15:39:47.341Z,1.10
2022-08-01T15:42:20.157Z,1.37
2022-08-01T15:44:56.337Z,1.10
2022-08-01T15:47:25.064Z,1.70
2022-08-01T15:49:53.273Z,1.30
2022-08-01T15:52:23.018Z,1.30
2022-08-01T15:54:51.205Z,1.43
2022-08-01T15:57:19.280Z,1.47
2022-08-01T15:59:47.221Z,2.13
2022-08-01T16:02:16.595Z,2.28
2022-08-01T16:04:44.632Z,2.30
2022-08-01T16:07:12.871Z,1.60
2022-08-01T16:09:40.852Z,1.60
2022-08-01T16:12:10.083Z,1.60
2022-08-01T16:14:38.229Z,1.20
2022-08-01T16:17:06.219Z,2.10
2022-08-01T16:19:35.423Z,1.23
2022-08-01T16:22:03.317Z,1.87
2022-08-01T16:24:31.335Z,1.10
2022-08-01T16:26:59.409Z,1.23
2022-08-01T16:29:30.541Z,2.17
2022-08-01T16:32:24.562Z,1.57
2022-08-01T16:34:47.856Z,1.20
2022-08-01T16:37:16.351Z,1.50
2022-08-01T16:39:45.494Z,2.03
2022-08-01T16:42:15.540Z,1.10
2022-08-01T16:44:44.851Z,1.40
2022-08-01T16:47:12.812Z,1.20
2022-08-01T16:49:40.753Z,1.40
2022-08-01T16:52:10.297Z,1.47
2022-08-01T16:54:38.285Z,1.30
2022-08-01T16:57:08.461Z,1.33
2022-08-01T16:59:41.057Z,1.83
2022-08-01T17:02:10.275Z,1.40
2022-08-01T17:04:38.458Z,2.40
2022-08-01T17:07:06.513Z,1.77
2022-08-01T17:09:38.693Z,1.97
2022-08-01T17:12:11.756Z,1.43
2022-08-01T17:14:39.753Z,1.67
2022-08-01T17:17:08.439Z,2.50
2022-08-01T17:19:36.521Z,2.20
2022-08-01T17:22:04.689Z,1.63
2022-08-01T17:24:32.737Z,1.13
2022-08-01T17:27:01.917Z,1.30
2022-08-01T17:29:43.832Z,1.43
2022-08-01T17:32:12.989Z,2.43
2022-08-01T17:34:40.910Z,2.00
2022-08-01T17:37:09.404Z,1.10
2022-08-01T17:39:39.425Z,1.20
2022-08-01T17:42:10.667Z,1.27
2022-08-01T17:44:38.511Z,2.67
2022-08-01T17:47:07.055Z,1.40
2022-08-01T17:49:56.205Z,1.67
2022-08-01T17:52:23.591Z,1.40
2022-08-01T17:54:57.491Z,1.00
2022-08-01T17:57:26.936Z,1.10
2022-08-01T17:59:58.481Z,1.27
2022-08-01T18:02:26.708Z,0.90
2022-08-01T18:04:54.915Z,0.83
2022-08-01T18:08:01.808Z,1.13
2022-08-01T18:10:11.634Z,1.30
2022-08-01T18:12:41.607Z,1.43
2022-08-01T18:15:10.212Z,0.93
2022-08-01T18:17:43.521Z,1.63
2022-08-01T18:20:12.407Z,1.80
2022-08-01T18:22:41.498Z,3.70
2022-08-01T18:25:10.351Z,1.13
2022-08-01T18:28:16.405Z,1.70
2022-08-01T18:30:28.094Z,1.27
2022-08-01T18:32:56.026Z,1.80
2022-08-01T18:35:34.478Z,1.60
2022-08-01T18:38:12.484Z,0.97
2022-08-01T18:40:41.505Z,1.03
2022-08-01T18:43:09.256Z,1.63
2022-08-01T18:45:42.522Z,1.40
2022-08-01T18:48:11.044Z,0.70
2022-08-01T18:50:39.400Z,1.03
2022-08-01T18:53:08.276Z,0.87
2022-08-01T18:55:36.123Z,1.17
2022-08-01T18:58:04.486Z,1.97
2022-08-01T19:00:32.507Z,0.93
2022-08-01T19:03:01.692Z,2.00
2022-08-01T19:05:31.190Z,1.00
2022-08-01T19:08:07.215Z,0.67
2022-08-01T19:10:35.761Z,1.90
2022-08-01T19:13:03.779Z,1.23
2022-08-01T19:15:31.901Z,1.17
2022-08-01T19:18:01.807Z,2.00
2022-08-01T19:20:29.879Z,1.03
2022-08-01T19:23:20.483Z,1.17
2022-08-01T19:25:55.251Z,1.37
2022-08-01T19:28:25.018Z,0.93
2022-08-01T19:30:55.229Z,1.40
2022-08-01T19:33:31.099Z,2.90
2022-08-01T19:35:59.667Z,2.43
2022-08-01T19:38:28.570Z,1.20
2022-08-01T19:40:57.025Z,2.47
2022-08-01T19:43:26.520Z,2.07
2022-08-01T19:45:56.717Z,1.93
2022-08-01T19:48:24.645Z,1.17
2022-08-01T19:50:55.141Z,1.63
2022-08-01T19:53:25.518Z,3.27
2022-08-01T19:55:54.140Z,1.43
2022-08-01T19:58:27.273Z,2.33
2022-08-01T20:00:56.551Z,1.30
2022-08-01T20:03:24.833Z,0.80
2022-08-01T20:05:54.426Z,1.13
2022-08-01T20:08:22.476Z,1.33
2022-08-01T20:10:50.827Z,0.90
2022-08-01T20:13:19.315Z,1.90
2022-08-01T20:15:48.145Z,1.10
2022-08-01T20:18:15.928Z,2.53
2022-08-01T20:20:45.029Z,1.10
2022-08-01T20:23:18.364Z,1.17
2022-08-01T20:25:50.329Z,1.60
2022-08-01T20:28:21.867Z,1.60
2022-08-01T20:30:54.508Z,3.97
2022-08-01T20:33:22.492Z,3.60
2022-08-01T20:35:53.958Z,1.67
2022-08-01T20:38:25.196Z,1.47
2022-08-01T20:40:58.472Z,1.57
2022-08-01T20:43:27.897Z,2.00
2022-08-01T20:45:56.684Z,2.83
2022-08-01T20:48:27.698Z,1.87
2022-08-01T20:51:13.672Z,1.30
2022-08-01T20:53:44.756Z,1.70
2022-08-01T20:56:17.191Z,1.20
2022-08-01T20:58:59.035Z,1.30
2022-08-01T21:01:30.472Z,1.27
2022-08-01T21:04:16.342Z,1.33
2022-08-01T21:06:50.498Z,2.03
2022-08-01T21:09:24.503Z,1.47
2022-08-01T21:12:02.756Z,2.10
2022-08-01T21:14:44.396Z,2.80
2022-08-01T21:17:18.790Z,3.27
2022-08-01T21:19:49.233Z,2.33
2022-08-01T21:22:26.927Z,2.93
2022-08-01T21:25:02.798Z,1.90
2022-08-01T21:27:33.443Z,1.47
2022-08-01T21:30:04.312Z,1.93
2022-08-01T21:32:33.520Z,2.53
2022-08-01T21:35:02.407Z,1.27
2022-08-01T21:37:31.144Z,1.37
2022-08-01T21:40:09.558Z,1.63
2022-08-01T21:42:39.505Z,3.93
2022-08-01T21:45:09.411Z,2.30
2022-08-01T21:47:41.465Z,1.77
2022-08-01T21:50:10.944Z,2.27
2022-08-01T21:52:44.811Z,3.30
2022-08-01T21:55:22.727Z,2.97
2022-08-01T21:58:17.568Z,1.93
2022-08-01T22:00:52.053Z,1.47
2022-08-01T22:03:25.132Z,2.70
2022-08-01T22:05:54.684Z,1.60
2022-08-01T22:08:30.793Z,3.57
2022-08-01T22:11:03.067Z,3.13
2022-08-01T22:13:30.967Z,1.87
2022-08-01T22:15:59.654Z,3.00
2022-08-01T22:18:28.541Z,2.30
2022-08-01T22:20:56.876Z,2.83
2022-08-01T22:23:25.415Z,2.37
2022-08-01T22:25:54.569Z,3.43
2022-08-01T22:28:43.280Z,3.63
2022-08-01T22:31:11.203Z,1.60
2022-08-01T22:33:40.033Z,3.47
2022-08-01T22:36:08.396Z,2.00
2022-08-01T22:38:36.251Z,2.67
2022-08-01T22:41:06.974Z,2.00
2022-08-01T22:43:44.041Z,2.90
2022-08-01T22:46:26.149Z,2.87
2022-08-01T22:49:00.624Z,2.93
2022-08-01T22:51:39.248Z,2.57
2022-08-01T22:54:09.880Z,3.90
2022-08-01T22:56:40.170Z,5.07
2022-08-01T22:59:15.165Z,3.70
2022-08-01T23:01:47.495Z,2.67
2022-08-01T23:04:27.603Z,3.07
2022-08-01T23:07:05.409Z,6.17
2022-08-01T23:09:52.636Z,3.93
2022-08-01T23:12:24.390Z,3.43
2022-08-01T23:14:54.786Z,5.30
2022-08-01T23:17:27.361Z,2.67
2022-08-01T23:19:59.296Z,3.00
2022-08-01T23:22:30.942Z,4.00
2022-08-01T23:25:04.267Z,3.33
2022-08-01T23:27:56.046Z,2.90
2022-08-01T23:30:27.529Z,3.17
2022-08-01T23:32:55.561Z,3.90
2022-08-01T23:35:24.041Z,2.53
2022-08-01T23:37:52.159Z,4.87
2022-08-01T23:40:21.016Z,3.17
2022-08-01T23:42:54.437Z,2.63
2022-08-01T23:45:24.526Z,2.80
2022-08-01T23:47:52.732Z,4.73
2022-08-01T23:50:21.764Z,4.30
2022-08-01T23:52:51.355Z,2.03
2022-08-01T23:55:23.864Z,3.10
2022-08-01T23:58:06.330Z,2.57
